createdAt,value
2023-02-11T00:00:22.233Z,100455.25
2023-02-11T00:02:48.879Z,100448.78
2023-02-11T00:05:15.936Z,100442.09
2023-02-11T00:07:42.645Z,100429.63
2023-02-11T00:10:09.541Z,100439.66
2023-02-11T00:12:37.562Z,100434.56
2023-02-11T00:15:06.155Z,100431.97
2023-02-11T00:17:32.867Z,100436.66
2023-02-11T00:19:59.461Z,100444.47
2023-02-11T00:22:26.323Z,100450.56
2023-02-11T00:24:53.011Z,100455.00
2023-02-11T00:27:19.701Z,100445.53
2023-02-11T00:29:46.413Z,100439.66
2023-02-11T00:32:13.086Z,100447.44
2023-02-11T00:34:39.778Z,100442.38
2023-02-11T00:37:06.802Z,100440.47
2023-02-11T00:39:33.638Z,100441.81
2023-02-11T00:42:00.466Z,100433.41
2023-02-11T00:44:27.100Z,100428.91
2023-02-11T00:46:53.722Z,100425.97
2023-02-11T00:49:20.607Z,100433.31
2023-02-11T00:51:48.535Z,100419.56
2023-02-11T00:54:15.199Z,100415.78
2023-02-11T00:56:42.074Z,100410.41
2023-02-11T00:59:09.124Z,100408.59
2023-02-11T01:01:35.948Z,100405.63
2023-02-11T01:04:03.044Z,100406.03
2023-02-11T01:06:29.741Z,100400.00
2023-02-11T01:08:56.603Z,100399.38
2023-02-11T01:11:23.313Z,100400.03
2023-02-11T01:13:50.864Z,100399.94
2023-02-11T01:16:19.385Z,100402.00
2023-02-11T01:18:46.472Z,100412.44
2023-02-11T01:21:13.241Z,100415.06
2023-02-11T01:23:39.992Z,100419.22
2023-02-11T01:26:06.773Z,100417.81
2023-02-11T01:28:33.676Z,100417.00
2023-02-11T01:31:02.241Z,100414.19
2023-02-11T01:33:29.904Z,100422.78
2023-02-11T01:36:00.922Z,100428.72
2023-02-11T01:38:28.193Z,100422.41
2023-02-11T01:41:03.218Z,100423.97
2023-02-11T01:43:36.708Z,100424.72
2023-02-11T01:46:35.035Z,100425.66
2023-02-11T01:49:05.652Z,100425.75
2023-02-11T01:51:59.824Z,100422.31
2023-02-11T01:54:49.320Z,100416.81
2023-02-11T01:57:22.807Z,100413.09
2023-02-11T02:00:08.735Z,100396.28
2023-02-11T02:02:50.411Z,100389.91
2023-02-11T02:05:31.225Z,100384.59
2023-02-11T02:08:29.721Z,100382.88
2023-02-11T02:10:58.440Z,100383.97
2023-02-11T02:13:25.954Z,100389.47
2023-02-11T02:15:59.513Z,100387.84
2023-02-11T02:18:54.256Z,100383.66
2023-02-11T02:21:43.331Z,100373.22
2023-02-11T02:24:31.503Z,100367.97
2023-02-11T02:27:10.296Z,100360.72
2023-02-11T02:29:49.082Z,100356.50
2023-02-11T02:32:43.365Z,100358.19
2023-02-11T02:35:15.037Z,100361.16
2023-02-11T02:38:20.579Z,100351.41
2023-02-11T02:40:53.492Z,100340.34
2023-02-11T02:43:22.322Z,100345.19
2023-02-11T02:45:49.266Z,100350.16
2023-02-11T02:48:32.746Z,100353.31
2023-02-11T02:51:25.288Z,100363.47
2023-02-11T02:54:33.951Z,100354.06
2023-02-11T02:57:25.503Z,100348.50
2023-02-11T03:00:29.857Z,100342.53
2023-02-11T03:03:13.184Z,100342.53
2023-02-11T03:05:52.937Z,100342.13
2023-02-11T03:08:42.938Z,100330.63
2023-02-11T03:11:11.748Z,100337.78
2023-02-11T03:13:40.507Z,100336.94
2023-02-11T03:16:13.693Z,100336.81
2023-02-11T03:18:44.748Z,100333.53
2023-02-11T03:21:13.950Z,100345.28
2023-02-11T03:23:48.128Z,100338.84
2023-02-11T03:26:24.716Z,100344.66
2023-02-11T03:29:12.503Z,100348.25
2023-02-11T03:31:49.941Z,100348.75
2023-02-11T03:34:29.852Z,100345.84
2023-02-11T03:36:59.848Z,100356.84
2023-02-11T03:39:33.025Z,100355.38
2023-02-11T03:42:01.960Z,100349.25
2023-02-11T03:44:35.560Z,100352.88
2023-02-11T03:47:05.088Z,100360.59
2023-02-11T03:49:33.355Z,100360.78
2023-02-11T03:52:03.106Z,100358.06
2023-02-11T03:54:30.805Z,100358.72
2023-02-11T03:57:00.736Z,100354.06
2023-02-11T03:59:28.180Z,100350.56
2023-02-11T04:01:55.038Z,100345.19
2023-02-11T04:04:21.959Z,100348.56
2023-02-11T04:06:48.691Z,100338.00
2023-02-11T04:09:16.395Z,100341.28
2023-02-11T04:11:43.038Z,100342.66
2023-02-11T04:14:09.623Z,100338.28
2023-02-11T04:16:36.311Z,100340.75
2023-02-11T04:19:03.209Z,100336.41
2023-02-11T04:21:29.818Z,100343.47
2023-02-11T04:23:56.446Z,100344.53
2023-02-11T04:26:23.162Z,100343.72
2023-02-11T04:28:49.787Z,100344.81
2023-02-11T04:31:16.524Z,100341.34
2023-02-11T04:33:43.206Z,100338.81
2023-02-11T04:36:09.887Z,100339.66
2023-02-11T04:38:36.513Z,100337.75
2023-02-11T04:41:03.245Z,100332.63
2023-02-11T04:43:29.975Z,100332.38
2023-02-11T04:45:58.371Z,100329.00
2023-02-11T04:48:25.570Z,100323.09
2023-02-11T04:50:52.348Z,100320.53
2023-02-11T04:53:19.026Z,100314.53
2023-02-11T04:55:49.135Z,100317.94
2023-02-11T04:58:16.717Z,100307.47
2023-02-11T05:00:43.403Z,100299.28
2023-02-11T05:03:10.134Z,100289.47
2023-02-11T05:05:41.465Z,100290.09
2023-02-11T05:08:11.033Z,100287.34
2023-02-11T05:10:37.835Z,100285.34
2023-02-11T05:13:04.890Z,100273.72
2023-02-11T05:15:31.671Z,100275.69
2023-02-11T05:17:58.551Z,100272.03
2023-02-11T05:20:25.485Z,100265.03
2023-02-11T05:22:52.537Z,100278.47
2023-02-11T05:25:20.342Z,100281.84
2023-02-11T05:27:46.948Z,100289.13
2023-02-11T05:30:13.825Z,100289.94
2023-02-11T05:32:40.572Z,100290.94
2023-02-11T05:35:08.202Z,100293.97
2023-02-11T05:37:35.226Z,100298.56
2023-02-11T05:40:01.909Z,100298.03
2023-02-11T05:42:28.557Z,100307.78
2023-02-11T05:44:55.207Z,100301.56
2023-02-11T05:47:21.802Z,100294.53
2023-02-11T05:49:48.402Z,100297.81
2023-02-11T05:52:15.092Z,100298.72
2023-02-11T05:54:41.839Z,100296.84
2023-02-11T05:57:08.581Z,100303.31
2023-02-11T05:59:35.269Z,100292.06
2023-02-11T06:02:02.324Z,100304.38
2023-02-11T06:04:29.281Z,100302.00
2023-02-11T06:06:56.829Z,100297.50
2023-02-11T06:09:23.486Z,100300.31
2023-02-11T06:11:50.115Z,100292.78
2023-02-11T06:14:16.700Z,100292.78
2023-02-11T06:16:43.393Z,100297.13
2023-02-11T06:19:10.797Z,100294.66
2023-02-11T06:21:43.983Z,100300.06
2023-02-11T06:24:11.899Z,100295.41
2023-02-11T06:26:38.580Z,100294.66
2023-02-11T06:29:05.320Z,100306.19
2023-02-11T06:31:32.096Z,100310.50
2023-02-11T06:33:59.256Z,100318.41
2023-02-11T06:36:25.931Z,100306.94
2023-02-11T06:38:52.677Z,100303.13
2023-02-11T06:41:22.643Z,100302.31
2023-02-11T06:43:49.748Z,100296.53
2023-02-11T06:46:16.431Z,100311.34
2023-02-11T06:48:44.845Z,100305.25
2023-02-11T06:51:13.318Z,100317.66
2023-02-11T06:53:43.232Z,100314.16
2023-02-11T06:56:12.561Z,100312.19
2023-02-11T06:58:39.720Z,100318.75
2023-02-11T07:01:08.984Z,100318.75
2023-02-11T07:03:37.287Z,100322.19
2023-02-11T07:06:05.948Z,100330.25
2023-02-11T07:08:36.828Z,100324.09
2023-02-11T07:11:16.305Z,100321.31
2023-02-11T07:13:43.498Z,100316.97
2023-02-11T07:16:14.086Z,100322.19
2023-02-11T07:18:40.978Z,100322.03
2023-02-11T07:21:09.362Z,100323.94
2023-02-11T07:23:36.908Z,100324.03
2023-02-11T07:26:08.918Z,100319.88
2023-02-11T07:28:37.163Z,100316.59
2023-02-11T07:31:12.122Z,100324.19
2023-02-11T07:33:39.306Z,100329.78
2023-02-11T07:36:08.504Z,100331.94
2023-02-11T07:38:36.167Z,100336.25
2023-02-11T07:41:09.265Z,100335.38
2023-02-11T07:43:37.420Z,100334.38
2023-02-11T07:46:05.859Z,100338.06
2023-02-11T07:48:32.951Z,100338.97
2023-02-11T07:51:11.775Z,100346.75
2023-02-11T07:53:38.777Z,100344.13
2023-02-11T07:56:06.961Z,100344.13
2023-02-11T07:58:34.273Z,100342.72
2023-02-11T08:01:06.066Z,100335.16
2023-02-11T08:03:34.448Z,100342.59
2023-02-11T08:06:09.624Z,100342.06
2023-02-11T08:08:36.923Z,100338.59
2023-02-11T08:11:08.203Z,100336.06
2023-02-11T08:13:35.800Z,100344.34
2023-02-11T08:16:05.117Z,100341.00
2023-02-11T08:18:33.222Z,100349.41
2023-02-11T08:21:07.513Z,100338.13
2023-02-11T08:23:37.408Z,100345.00
2023-02-11T08:26:05.469Z,100355.13
2023-02-11T08:28:35.954Z,100349.81
2023-02-11T08:31:11.429Z,100351.28
2023-02-11T08:33:40.373Z,100356.94
2023-02-11T08:36:12.051Z,100350.09
2023-02-11T08:38:38.725Z,100360.91
2023-02-11T08:41:05.513Z,100354.97
2023-02-11T08:43:33.271Z,100357.63
2023-02-11T08:46:02.153Z,100361.84
2023-02-11T08:48:29.925Z,100355.13
2023-02-11T08:50:57.282Z,100366.13
2023-02-11T08:53:24.348Z,100367.41
2023-02-11T08:55:53.948Z,100377.53
2023-02-11T08:58:21.613Z,100374.31
2023-02-11T09:00:49.917Z,100372.59
2023-02-11T09:03:16.956Z,100380.22
2023-02-11T09:05:49.809Z,100377.59
2023-02-11T09:08:17.115Z,100376.78
2023-02-11T09:10:43.979Z,100381.47
2023-02-11T09:13:11.100Z,100380.47
2023-02-11T09:15:37.726Z,100382.31
2023-02-11T09:18:05.180Z,100381.63
2023-02-11T09:20:32.129Z,100379.53
2023-02-11T09:22:59.512Z,100386.22
2023-02-11T09:25:26.649Z,100392.81
2023-02-11T09:27:53.789Z,100378.66
2023-02-11T09:30:21.093Z,100386.34
2023-02-11T09:32:47.933Z,100390.25
2023-02-11T09:35:14.618Z,100376.69
2023-02-11T09:37:41.314Z,100381.84
2023-02-11T09:40:08.674Z,100371.19
2023-02-11T09:42:44.281Z,100381.13
2023-02-11T09:45:24.313Z,100384.28
2023-02-11T09:47:55.911Z,100384.69
2023-02-11T09:50:29.400Z,100376.47
2023-02-11T09:53:11.628Z,100362.97
2023-02-11T09:55:46.038Z,100359.88
2023-02-11T09:58:14.427Z,100353.66
2023-02-11T10:00:50.259Z,100357.44
2023-02-11T10:03:38.160Z,100356.88
2023-02-11T10:06:38.188Z,100352.75
2023-02-11T10:09:11.506Z,100358.38
2023-02-11T10:12:09.158Z,100350.06
2023-02-11T10:14:53.781Z,100357.06
2023-02-11T10:17:37.751Z,100349.97
2023-02-11T10:20:04.428Z,100344.75
2023-02-11T10:22:37.588Z,100346.41
2023-02-11T10:25:20.035Z,100354.69
2023-02-11T10:27:47.671Z,100358.56
2023-02-11T10:30:43.801Z,100350.41
2023-02-11T10:33:43.101Z,100355.75
2023-02-11T10:36:14.418Z,100354.41
2023-02-11T10:38:41.168Z,100349.13
2023-02-11T10:41:16.020Z,100358.00
2023-02-11T10:43:43.524Z,100367.72
2023-02-11T10:46:17.198Z,100358.91
2023-02-11T10:48:52.697Z,100364.25
2023-02-11T10:51:25.438Z,100353.53
2023-02-11T10:54:04.161Z,100355.38
2023-02-11T10:56:34.389Z,100358.03
2023-02-11T10:59:05.163Z,100350.09
2023-02-11T11:01:48.580Z,100349.06
2023-02-11T11:04:30.446Z,100353.50
2023-02-11T11:07:09.574Z,100357.13
2023-02-11T11:09:59.636Z,100351.88
2023-02-11T11:12:47.308Z,100340.34
2023-02-11T11:15:32.974Z,100337.66
2023-02-11T11:18:21.349Z,100337.72
2023-02-11T11:21:01.323Z,100339.44
2023-02-11T11:23:30.330Z,100327.09
2023-02-11T11:26:05.124Z,100321.69
2023-02-11T11:28:55.919Z,100314.38
2023-02-11T11:31:30.462Z,100295.19
2023-02-11T11:33:59.605Z,100290.72
2023-02-11T11:36:36.044Z,100282.09
2023-02-11T11:39:17.773Z,100261.84
2023-02-11T11:41:57.833Z,100278.59
2023-02-11T11:44:26.135Z,100272.28
2023-02-11T11:47:11.049Z,100287.56
2023-02-11T11:49:41.858Z,100294.34
2023-02-11T11:52:48.921Z,100299.91
2023-02-11T11:55:26.888Z,100290.75
2023-02-11T11:57:53.740Z,100276.06
2023-02-11T12:01:00.124Z,100277.97
2023-02-11T12:03:42.062Z,100271.00
2023-02-11T12:06:39.578Z,100261.31
2023-02-11T12:09:16.082Z,100253.94
2023-02-11T12:12:04.567Z,100254.09
2023-02-11T12:14:39.351Z,100242.22
2023-02-11T12:17:17.642Z,100248.47
2023-02-11T12:19:56.326Z,100260.34
2023-02-11T12:22:31.723Z,100260.66
2023-02-11T12:25:09.938Z,100274.03
2023-02-11T12:27:52.713Z,100276.75
2023-02-11T12:30:28.716Z,100276.47
2023-02-11T12:33:23.350Z,100290.97
2023-02-11T12:35:55.813Z,100282.34
2023-02-11T12:38:48.878Z,100287.53
2023-02-11T12:42:03.682Z,100282.31
2023-02-11T12:44:36.494Z,100292.50
2023-02-11T12:47:13.027Z,100302.06
2023-02-11T12:50:13.036Z,100318.19
2023-02-11T12:52:57.809Z,100326.44
2023-02-11T12:55:28.203Z,100329.63
2023-02-11T12:57:59.359Z,100335.88
2023-02-11T13:00:37.218Z,100336.81
2023-02-11T13:03:09.827Z,100333.25
2023-02-11T13:06:01.842Z,100341.19
2023-02-11T13:08:34.738Z,100330.53
2023-02-11T13:11:07.984Z,100334.00
2023-02-11T13:13:46.216Z,100332.19
2023-02-11T13:16:24.036Z,100333.00
2023-02-11T13:18:55.770Z,100323.31
2023-02-11T13:21:32.079Z,100331.25
2023-02-11T13:24:13.450Z,100326.78
2023-02-11T13:26:43.252Z,100324.28
2023-02-11T13:29:30.073Z,100332.22
2023-02-11T13:32:10.073Z,100318.97
2023-02-11T13:34:43.008Z,100324.09
2023-02-11T13:37:21.684Z,100326.53
2023-02-11T13:40:04.870Z,100321.31
2023-02-11T13:42:34.311Z,100328.22
2023-02-11T13:45:01.499Z,100321.19
2023-02-11T13:47:37.407Z,100326.47
2023-02-11T13:50:07.310Z,100326.19
2023-02-11T13:52:37.960Z,100319.13
2023-02-11T13:55:21.574Z,100328.75
2023-02-11T13:58:08.206Z,100319.19
2023-02-11T14:00:34.855Z,100321.81
2023-02-11T14:03:29.381Z,100321.75
2023-02-11T14:06:27.116Z,100325.38
2023-02-11T14:09:09.203Z,100321.88
2023-02-11T14:11:56.187Z,100320.09
2023-02-11T14:14:31.661Z,100313.88
2023-02-11T14:17:01.550Z,100318.22
2023-02-11T14:19:37.436Z,100318.22
2023-02-11T14:22:05.028Z,100312.91
2023-02-11T14:24:37.578Z,100323.34
2023-02-11T14:27:21.345Z,100311.13
2023-02-11T14:30:08.331Z,100312.78
2023-02-11T14:33:00.633Z,100314.56
2023-02-11T14:35:41.816Z,100307.47
2023-02-11T14:38:59.427Z,100303.03
2023-02-11T14:41:47.095Z,100302.19
2023-02-11T14:44:25.183Z,100299.56
2023-02-11T14:46:53.981Z,100304.75
2023-02-11T14:49:33.613Z,100311.88
2023-02-11T14:52:20.106Z,100311.78
2023-02-11T14:54:50.995Z,100323.25
2023-02-11T14:57:20.178Z,100321.47
2023-02-11T15:00:21.076Z,100316.91
2023-02-11T15:02:48.243Z,100317.69
2023-02-11T15:05:29.011Z,100318.50
2023-02-11T15:08:02.076Z,100323.75
2023-02-11T15:10:49.274Z,100322.84
2023-02-11T15:13:21.576Z,100313.09
2023-02-11T15:15:52.314Z,100313.06
2023-02-11T15:18:25.731Z,100318.25
2023-02-11T15:20:53.141Z,100316.44
2023-02-11T15:23:24.918Z,100318.97
2023-02-11T15:25:55.818Z,100322.38
2023-02-11T15:28:31.737Z,100320.53
2023-02-11T15:31:04.557Z,100332.88
2023-02-11T15:33:32.659Z,100331.16
2023-02-11T15:36:01.782Z,100332.00
2023-02-11T15:38:31.786Z,100326.81
2023-02-11T15:41:02.022Z,100330.25
2023-02-11T15:43:46.961Z,100331.19
2023-02-11T15:46:18.716Z,100331.22
2023-02-11T15:48:49.173Z,100337.31
2023-02-11T15:51:37.922Z,100341.56
2023-02-11T15:54:22.778Z,100346.75
2023-02-11T15:56:52.456Z,100331.72
2023-02-11T15:59:22.464Z,100334.38
2023-02-11T16:01:49.834Z,100336.13
2023-02-11T16:04:19.693Z,100336.97
2023-02-11T16:06:50.549Z,100337.69
2023-02-11T16:09:17.388Z,100338.69
2023-02-11T16:11:47.264Z,100350.19
2023-02-11T16:14:21.869Z,100344.88
2023-02-11T16:16:51.814Z,100350.09
2023-02-11T16:19:23.589Z,100354.41
2023-02-11T16:21:53.553Z,100356.09
2023-02-11T16:24:33.948Z,100355.28
2023-02-11T16:27:03.690Z,100367.53
2023-02-11T16:29:33.521Z,100359.53
2023-02-11T16:32:09.097Z,100352.38
2023-02-11T16:34:37.091Z,100357.63
2023-02-11T16:37:05.579Z,100354.84
2023-02-11T16:39:33.351Z,100348.75
2023-02-11T16:42:01.310Z,100352.16
2023-02-11T16:44:28.938Z,100359.19
2023-02-11T16:46:59.181Z,100360.13
2023-02-11T16:49:42.203Z,100360.09
2023-02-11T16:52:14.329Z,100364.44
2023-02-11T16:54:41.428Z,100367.16
2023-02-11T16:57:20.797Z,100364.41
2023-02-11T16:59:48.822Z,100369.59
2023-02-11T17:02:16.976Z,100372.19
2023-02-11T17:04:44.589Z,100374.81
2023-02-11T17:07:11.944Z,100378.34
2023-02-11T17:09:38.914Z,100374.81
2023-02-11T17:12:06.154Z,100392.44
2023-02-11T17:14:33.107Z,100396.84
2023-02-11T17:17:00.121Z,100406.56
2023-02-11T17:19:27.338Z,100398.69
2023-02-11T17:21:54.196Z,100398.69
2023-02-11T17:24:22.226Z,100400.44
2023-02-11T17:26:49.603Z,100402.19
2023-02-11T17:29:19.745Z,100401.28
2023-02-11T17:31:46.830Z,100396.84
2023-02-11T17:34:14.168Z,100402.97
2023-02-11T17:36:43.880Z,100393.25
2023-02-11T17:39:10.948Z,100395.97
2023-02-11T17:41:38.853Z,100395.06
2023-02-11T17:44:06.891Z,100383.59
2023-02-11T17:46:36.815Z,100396.81
2023-02-11T17:49:04.386Z,100385.31
2023-02-11T17:51:34.016Z,100395.91
2023-02-11T17:54:04.177Z,100394.09
2023-02-11T17:56:36.316Z,100393.13
2023-02-11T17:59:04.226Z,100400.16
2023-02-11T18:01:32.815Z,100396.72
2023-02-11T18:03:59.594Z,100393.25
2023-02-11T18:06:26.893Z,100393.25
2023-02-11T18:08:56.837Z,100396.72
2023-02-11T18:11:25.863Z,100385.16
2023-02-11T18:13:54.483Z,100382.50
2023-02-11T18:16:22.208Z,100396.53
2023-02-11T18:18:49.722Z,100383.19
2023-02-11T18:21:19.633Z,100396.41
2023-02-11T18:23:47.202Z,100391.19
2023-02-11T18:26:15.529Z,100393.84
2023-02-11T18:28:45.291Z,100396.56
2023-02-11T18:31:12.550Z,100388.63
2023-02-11T18:33:40.463Z,100391.28
2023-02-11T18:36:10.853Z,100387.78
2023-02-11T18:38:38.350Z,100395.69
2023-02-11T18:41:05.386Z,100395.56
2023-02-11T18:43:33.566Z,100391.97
2023-02-11T18:46:01.901Z,100394.72
2023-02-11T18:48:28.884Z,100398.25
2023-02-11T18:50:55.738Z,100396.53
2023-02-11T18:53:24.707Z,100397.44
2023-02-11T18:55:52.622Z,100394.81
2023-02-11T18:58:21.143Z,100403.59
2023-02-11T19:00:49.206Z,100407.88
2023-02-11T19:03:16.348Z,100415.84
2023-02-11T19:05:45.797Z,100415.88
2023-02-11T19:08:13.438Z,100410.53
2023-02-11T19:10:45.213Z,100413.13
2023-02-11T19:13:12.087Z,100408.78
2023-02-11T19:15:43.047Z,100412.38
2023-02-11T19:18:10.752Z,100415.00
2023-02-11T19:20:42.331Z,100411.50
2023-02-11T19:23:10.039Z,100407.00
2023-02-11T19:25:37.314Z,100415.88
2023-02-11T19:28:04.039Z,100414.06
2023-02-11T19:30:30.854Z,100427.19
2023-02-11T19:32:57.785Z,100424.50
2023-02-11T19:35:25.732Z,100420.94
2023-02-11T19:37:52.447Z,100424.38
2023-02-11T19:40:21.150Z,100422.63
2023-02-11T19:42:47.902Z,100410.25
2023-02-11T19:45:14.689Z,100410.28
2023-02-11T19:47:41.368Z,100426.91
2023-02-11T19:50:08.850Z,100427.88
2023-02-11T19:52:38.254Z,100415.50
2023-02-11T19:55:05.281Z,100420.69
2023-02-11T19:57:31.974Z,100418.00
2023-02-11T19:59:58.787Z,100417.03
2023-02-11T20:02:25.527Z,100415.25
2023-02-11T20:04:52.258Z,100410.84
2023-02-11T20:07:18.913Z,100400.41
2023-02-11T20:09:45.555Z,100396.03
2023-02-11T20:12:12.331Z,100394.28
2023-02-11T20:14:39.005Z,100406.44
2023-02-11T20:17:05.604Z,100421.38
2023-02-11T20:19:32.322Z,100416.09
2023-02-11T20:21:59.056Z,100419.63
2023-02-11T20:24:26.035Z,100417.78
2023-02-11T20:26:55.743Z,100416.94
2023-02-11T20:29:23.648Z,100418.59
2023-02-11T20:31:50.889Z,100412.38
2023-02-11T20:34:18.171Z,100406.38
2023-02-11T20:36:51.635Z,100414.31
2023-02-11T20:39:19.224Z,100408.84
2023-02-11T20:41:46.338Z,100413.25
2023-02-11T20:44:13.505Z,100414.16
2023-02-11T20:46:42.934Z,100417.53
2023-02-11T20:49:21.405Z,100416.78
2023-02-11T20:51:49.200Z,100422.91
2023-02-11T20:54:18.386Z,100420.41
2023-02-11T20:56:48.084Z,100422.19
2023-02-11T20:59:16.587Z,100424.91
2023-02-11T21:01:46.992Z,100423.00
2023-02-11T21:04:20.989Z,100420.41
2023-02-11T21:06:52.020Z,100413.38
2023-02-11T21:09:21.461Z,100417.72
2023-02-11T21:11:51.516Z,100414.09
2023-02-11T21:14:19.392Z,100415.94
2023-02-11T21:16:47.184Z,100414.22
2023-02-11T21:19:14.622Z,100417.69
2023-02-11T21:21:41.740Z,100421.13
2023-02-11T21:24:09.653Z,100409.69
2023-02-11T21:26:37.307Z,100417.72
2023-02-11T21:29:05.719Z,100415.94
2023-02-11T21:31:34.715Z,100423.84
2023-02-11T21:34:01.521Z,100424.66
2023-02-11T21:36:29.630Z,100433.44
2023-02-11T21:38:56.823Z,100433.44
2023-02-11T21:41:24.721Z,100434.34
2023-02-11T21:43:52.251Z,100439.53
2023-02-11T21:46:20.604Z,100443.13
2023-02-11T21:48:48.059Z,100441.22
2023-02-11T21:51:18.587Z,100440.19
2023-02-11T21:53:45.879Z,100447.25
2023-02-11T21:56:15.610Z,100444.72
2023-02-11T21:58:43.048Z,100441.13
2023-02-11T22:01:18.758Z,100436.81
2023-02-11T22:03:46.408Z,100430.69
2023-02-11T22:06:16.493Z,100437.63
2023-02-11T22:08:43.376Z,100428.84
2023-02-11T22:11:12.321Z,100430.69
2023-02-11T22:13:40.364Z,100428.88
2023-02-11T22:16:10.722Z,100427.16
2023-02-11T22:18:38.439Z,100415.63
2023-02-11T22:21:10.991Z,100424.38
2023-02-11T22:23:39.058Z,100428.00
2023-02-11T22:26:08.336Z,100432.44
2023-02-11T22:28:36.996Z,100440.41
2023-02-11T22:31:04.000Z,100432.44
2023-02-11T22:33:31.060Z,100436.81
2023-02-11T22:36:02.596Z,100436.03
2023-02-11T22:38:31.125Z,100436.94
2023-02-11T22:41:00.396Z,100436.97
2023-02-11T22:43:28.090Z,100443.13
2023-02-11T22:45:56.437Z,100440.44
2023-02-11T22:48:23.366Z,100439.53
2023-02-11T22:50:50.080Z,100438.66
2023-02-11T22:53:16.807Z,100437.72
2023-02-11T22:55:43.420Z,100441.13
2023-02-11T22:58:10.073Z,100445.59
2023-02-11T23:00:39.378Z,100449.94
2023-02-11T23:03:07.814Z,100455.25
2023-02-11T23:05:39.562Z,100456.16
2023-02-11T23:08:08.673Z,100457.91
2023-02-11T23:10:37.004Z,100463.22
2023-02-11T23:13:04.645Z,100467.56
2023-02-11T23:15:31.573Z,100457.88
2023-02-11T23:17:59.070Z,100465.88
2023-02-11T23:20:26.044Z,100459.16
2023-02-11T23:22:52.746Z,100461.69
2023-02-11T23:25:19.450Z,100462.53
2023-02-11T23:27:46.143Z,100468.53
2023-02-11T23:30:13.598Z,100467.59
2023-02-11T23:32:40.802Z,100455.25
2023-02-11T23:35:07.715Z,100458.69
2023-02-11T23:37:34.452Z,100457.03
2023-02-11T23:40:01.113Z,100458.69
2023-02-11T23:42:29.064Z,100452.44
2023-02-11T23:44:55.720Z,100470.03
2023-02-11T23:47:22.320Z,100459.50
2023-02-11T23:49:49.025Z,100453.34
2023-02-11T23:52:15.718Z,100455.09
2023-02-11T23:54:43.337Z,100455.03
2023-02-11T23:57:10.083Z,100449.84
2023-02-11T23:59:36.759Z,100445.50
